Time;durP1;ratioP1;P1;durP2;ratioP2;P2;SDS_P1;SDS_P2;PMS_P1;PMS_P2;Temp;Humidity;BMP_temperature;BMP_pressure;BME280_temperature;BME280_humidity;BME280_pressure;Samples;Min_cycle;Max_cycle;Signal;HPM_P1;HPM_P2
2020/12/08 00:00:22;;;;;;;8.40;4.17;;;;;;;-1.21;51.88;101987.17;1720234;83;21153;-82
2020/12/08 00:02:50;;;;;;;10.90;4.33;;;;;;;-1.18;51.83;101984.00;1723576;83;21208;-81
2020/12/08 00:05:20;;;;;;;9.53;5.80;;;;;;;-1.20;51.79;102012.09;1726915;82;21149;-81
2020/12/08 00:07:48;;;;;;;11.48;5.15;;;;;;;-1.32;52.07;101979.58;1725204;83;21074;-81
2020/12/08 00:10:20;;;;;;;8.98;4.87;;;;;;;-1.39;52.18;101976.73;1720504;83;21137;-81
2020/12/08 00:12:51;;;;;;;8.88;3.75;;;;;;;-1.36;52.14;102002.95;1720466;83;21070;-81
2020/12/08 00:15:19;;;;;;;11.55;5.25;;;;;;;-1.33;51.87;101984.44;1720382;83;21431;-82
2020/12/08 00:17:47;;;;;;;11.20;5.22;;;;;;;-1.44;52.10;101987.84;1720444;83;21572;-80
2020/12/08 00:20:19;;;;;;;8.83;4.60;;;;;;;-1.56;52.46;102028.00;1720568;83;21121;-81
2020/12/08 00:22:47;;;;;;;8.60;5.33;;;;;;;-1.62;52.68;101975.63;1720534;83;21129;-81
2020/12/08 00:25:16;;;;;;;10.45;5.37;;;;;;;-1.64;52.70;101977.88;1720931;83;21146;-81
2020/12/08 00:27:44;;;;;;;15.80;6.28;;;;;;;-1.59;52.76;101969.41;1721008;83;21373;-80
2020/12/08 00:30:14;;;;;;;10.43;5.62;;;;;;;-1.55;52.93;101978.47;1721034;83;21513;-81
2020/12/08 00:32:43;;;;;;;9.85;5.28;;;;;;;-1.53;52.79;101977.14;1723547;83;21052;-81
2020/12/08 00:35:12;;;;;;;10.10;5.10;;;;;;;-1.49;52.82;101984.03;1727547;79;21085;-80
2020/12/08 00:37:58;;;;;;;9.95;4.47;;;;;;;-1.47;52.51;101995.80;1728966;79;21077;-80
2020/12/08 00:40:26;;;;;;;7.78;4.83;;;;;;;-1.51;52.63;101977.08;1727370;83;22565;-81
2020/12/08 00:43:11;;;;;;;10.93;5.17;;;;;;;-1.48;52.75;101973.92;1727124;83;21085;-81
2020/12/08 00:45:39;;;;;;;12.55;6.33;;;;;;;-1.51;52.76;101960.86;1726085;83;21167;-80
2020/12/08 00:48:07;;;;;;;11.28;5.20;;;;;;;-1.49;52.82;101955.58;1746254;82;21137;-82
2020/12/08 00:50:36;;;;;;;13.25;4.80;;;;;;;-1.49;52.79;101952.95;1751787;82;21121;-81
2020/12/08 00:53:04;;;;;;;10.55;5.25;;;;;;;-1.45;52.74;101950.61;1751439;82;21365;-81
2020/12/08 00:55:32;;;;;;;11.38;5.75;;;;;;;-1.42;52.71;101952.70;1751594;82;21078;-81
2020/12/08 00:58:00;;;;;;;9.75;5.50;;;;;;;-1.41;52.76;101971.54;1751263;82;21122;-81
2020/12/08 01:00:28;;;;;;;11.28;5.40;;;;;;;-1.44;52.79;101949.73;1751352;82;21078;-82
2020/12/08 01:02:56;;;;;;;12.98;5.42;;;;;;;-1.44;52.94;101950.59;1751422;82;21588;-81
2020/12/08 01:05:24;;;;;;;10.43;5.30;;;;;;;-1.48;52.85;101945.47;1748106;82;21616;-82
2020/12/08 01:07:54;;;;;;;10.68;5.53;;;;;;;-1.54;52.95;101953.95;1746387;82;21160;-82
2020/12/08 01:10:24;;;;;;;12.28;6.37;;;;;;;-1.50;53.02;101977.48;1734271;82;21166;-82
2020/12/08 01:12:52;;;;;;;8.73;5.53;;;;;;;-1.51;53.34;101958.23;1725993;83;21186;-81
2020/12/08 01:15:20;;;;;;;12.82;6.25;;;;;;;-1.52;53.41;101942.52;1726585;83;21084;-82
2020/12/08 01:17:48;;;;;;;9.58;5.37;;;;;;;-1.47;53.69;101951.13;1725998;83;21216;-82
2020/12/08 01:20:17;;;;;;;12.15;5.92;;;;;;;-1.41;53.71;101958.40;1725901;83;21198;-82
2020/12/08 01:22:46;;;;;;;10.25;5.53;;;;;;;-1.41;53.86;101958.83;1725995;83;21151;-81
2020/12/08 01:25:17;;;;;;;10.93;5.40;;;;;;;-1.54;53.88;101953.95;1724897;83;21230;-79
2020/12/08 01:27:45;;;;;;;10.05;5.75;;;;;;;-1.57;54.06;101952.70;1724747;83;21226;-80
2020/12/08 01:30:15;;;;;;;8.78;4.90;;;;;;;-1.56;54.21;101947.85;1724937;83;21388;-81
2020/12/08 01:32:46;;;;;;;12.15;4.60;;;;;;;-1.48;54.28;101950.73;1725113;83;21179;-80
2020/12/08 01:35:17;;;;;;;9.20;4.70;;;;;;;-1.45;54.44;101954.56;1724990;81;21222;-81
2020/12/08 01:37:47;;;;;;;8.25;4.80;;;;;;;-1.41;54.39;101981.16;1722899;83;21137;-80
2020/12/08 01:40:15;;;;;;;9.58;4.90;;;;;;;-1.42;54.28;101962.36;1723518;83;21200;-80
2020/12/08 01:42:44;;;;;;;9.80;5.03;;;;;;;-1.48;54.44;101956.84;1718510;83;21228;-78
2020/12/08 01:45:12;;;;;;;16.23;7.85;;;;;;;-1.52;54.50;101948.64;1722213;83;21532;-79
2020/12/08 01:47:41;;;;;;;15.43;7.28;;;;;;;-1.48;54.43;101947.64;1726235;83;21078;-79
2020/12/08 01:50:10;;;;;;;18.20;7.35;;;;;;;-1.44;54.39;101945.80;1668939;83;21144;-79
2020/12/08 01:52:37;;;;;;;16.30;7.25;;;;;;;-1.42;54.48;101938.71;1726304;83;21113;-80
2020/12/08 01:55:07;;;;;;;9.53;5.45;;;;;;;-1.35;54.49;101951.63;1722912;83;21651;-78
2020/12/08 01:57:37;;;;;;;10.50;5.50;;;;;;;-1.32;54.31;101953.30;1720416;83;21145;-82
2020/12/08 02:00:07;;;;;;;9.55;5.78;;;;;;;-1.42;54.28;101936.08;1720794;83;21184;-80
2020/12/08 02:02:44;;;;;;;12.00;6.28;;;;;;;-1.55;54.47;101935.12;1720818;83;21185;-79
2020/12/08 02:05:18;;;;;;;9.95;4.78;;;;;;;-1.59;54.56;101949.28;1735627;81;21131;-80
2020/12/08 02:07:47;;;;;;;8.78;5.00;;;;;;;-1.66;54.85;101945.09;1735498;82;21366;-80
2020/12/08 02:10:15;;;;;;;9.73;5.53;;;;;;;-1.68;54.97;101929.84;1711711;81;21653;-79
2020/12/08 02:12:45;;;;;;;10.78;6.03;;;;;;;-1.73;55.13;101951.41;1710732;83;21184;-79
2020/12/08 02:15:14;;;;;;;11.50;5.33;;;;;;;-1.77;55.45;101931.41;1693550;84;21204;-81
2020/12/08 02:17:43;;;;;;;8.48;5.05;;;;;;;-1.77;55.62;101930.10;1697798;84;21176;-82
2020/12/08 02:20:12;;;;;;;8.60;5.10;;;;;;;-1.79;55.50;101921.39;1714122;83;21056;-78
2020/12/08 02:22:42;;;;;;;12.15;6.08;;;;;;;-1.82;55.64;101922.35;1723868;83;21539;-78
2020/12/08 02:25:10;;;;;;;11.53;5.90;;;;;;;-1.71;55.67;101946.99;1727062;82;21072;-78
2020/12/08 02:27:38;;;;;;;10.88;5.08;;;;;;;-1.65;55.49;101931.05;1726122;83;21175;-78
2020/12/08 02:30:08;;;;;;;12.82;6.03;;;;;;;-1.62;55.39;101929.66;1727505;82;21483;-78
2020/12/08 02:32:36;;;;;;;13.45;7.45;;;;;;;-1.59;55.38;101924.31;1724133;82;21264;-80
2020/12/08 02:35:05;;;;;;;12.45;6.92;;;;;;;-1.61;55.43;101946.27;1722869;83;21160;-79
2020/12/08 02:37:35;;;;;;;11.48;6.03;;;;;;;-1.61;55.53;101947.12;1724507;83;21157;-79
2020/12/08 02:40:04;;;;;;;10.30;5.65;;;;;;;-1.54;55.45;101927.67;1726502;83;21809;-77
2020/12/08 02:42:33;;;;;;;11.57;5.42;;;;;;;-1.47;55.14;101932.73;1701588;82;21200;-78
2020/12/08 02:45:02;;;;;;;14.28;7.08;;;;;;;-1.46;55.02;101931.82;1734269;82;21214;-81
2020/12/08 02:47:30;;;;;;;16.62;6.28;;;;;;;-1.40;55.10;101948.28;1726424;82;21164;-79
2020/12/08 02:50:00;;;;;;;10.70;5.83;;;;;;;-1.43;55.09;101955.39;1721058;83;21142;-80
2020/12/08 02:52:28;;;;;;;10.13;6.12;;;;;;;-1.57;54.99;101930.38;1721372;83;21172;-80
2020/12/08 02:54:55;;;;;;;11.80;6.37;;;;;;;-1.67;55.13;101932.87;1721395;83;21549;-78
2020/12/08 02:57:24;;;;;;;12.47;6.87;;;;;;;-1.64;55.20;101947.66;1721526;83;21204;-79
2020/12/08 02:59:52;;;;;;;11.65;5.42;;;;;;;-1.70;55.29;101929.00;1721497;83;21094;-79
2020/12/08 03:02:21;;;;;;;7.65;5.20;;;;;;;-1.68;55.46;101944.28;1721262;83;21157;-81
2020/12/08 03:04:50;;;;;;;12.13;6.30;;;;;;;-1.56;55.24;101932.09;1732466;82;21136;-79
2020/12/08 03:07:19;;;;;;;9.98;5.20;;;;;;;-1.61;55.19;101957.64;1747336;82;21543;-79
2020/12/08 03:09:47;;;;;;;9.20;5.42;;;;;;;-1.66;55.31;101928.02;1747659;82;21813;-79
2020/12/08 03:12:15;;;;;;;10.53;5.75;;;;;;;-1.69;55.35;101941.23;1747416;82;21166;-80
2020/12/08 03:14:45;;;;;;;9.70;6.30;;;;;;;-1.77;55.66;101952.42;1747591;82;21214;-80
2020/12/08 03:17:15;;;;;;;11.50;6.62;;;;;;;-1.81;55.85;101933.72;1746900;82;21120;-78
2020/12/08 03:19:45;;;;;;;10.75;5.80;;;;;;;-1.75;55.87;101930.05;1729874;82;21117;-77
2020/12/08 03:22:13;;;;;;;10.30;5.85;;;;;;;-1.68;55.85;101921.06;1722339;83;22696;-77
2020/12/08 03:24:43;;;;;;;12.63;6.05;;;;;;;-1.63;55.78;101929.25;1720891;83;21188;-81
2020/12/08 03:27:11;;;;;;;11.83;5.92;;;;;;;-1.56;55.50;101929.46;1723206;83;21062;-79
2020/12/08 03:29:39;;;;;;;12.93;6.85;;;;;;;-1.57;55.64;101929.52;1726516;83;21578;-79
2020/12/08 03:32:08;;;;;;;17.05;7.92;;;;;;;-1.56;55.72;101925.52;1751004;82;21473;-80
2020/12/08 03:34:37;;;;;;;9.90;5.20;;;;;;;-1.51;55.60;101925.84;1742800;82;21364;-81
2020/12/08 03:37:07;;;;;;;12.28;6.62;;;;;;;-1.43;55.40;101914.66;1725949;83;21132;-79
2020/12/08 03:39:36;;;;;;;11.53;6.25;;;;;;;-1.35;55.35;101912.67;1726508;83;21192;-79
2020/12/08 03:42:06;;;;;;;13.88;7.08;;;;;;;-1.35;55.28;101933.70;1725931;83;21148;-82
2020/12/08 03:44:35;;;;;;;12.73;6.70;;;;;;;-1.40;55.35;101908.01;1722963;83;21162;-81
2020/12/08 03:47:05;;;;;;;13.55;6.53;;;;;;;-1.42;55.50;101915.06;1719427;83;22311;-79
2020/12/08 03:49:34;;;;;;;14.03;7.55;;;;;;;-1.41;55.51;101912.83;1719503;83;21193;-79
2020/12/08 03:52:03;;;;;;;16.52;6.53;;;;;;;-1.49;55.41;101927.98;1719339;83;21165;-79
2020/12/08 03:54:31;;;;;;;13.22;6.85;;;;;;;-1.64;55.80;101918.77;1719078;83;21201;-79
2020/12/08 03:57:02;;;;;;;13.18;7.33;;;;;;;-1.69;56.06;101920.66;1688614;83;21194;-80
2020/12/08 03:59:30;;;;;;;11.40;7.00;;;;;;;-1.64;56.14;101924.87;1719271;83;21371;-79
2020/12/08 04:02:01;;;;;;;12.90;6.75;;;;;;;-1.60;56.26;101922.57;1718302;83;21241;-79
2020/12/08 04:04:29;;;;;;;11.35;6.72;;;;;;;-1.54;56.46;101932.06;1719357;83;21125;-80
2020/12/08 04:06:58;;;;;;;14.23;6.42;;;;;;;-1.47;56.56;101906.45;1723507;83;21622;-81
2020/12/08 04:09:25;;;;;;;12.37;7.42;;;;;;;-1.36;56.44;101914.89;1725720;83;21145;-82
2020/12/08 04:11:54;;;;;;;11.22;6.15;;;;;;;-1.30;56.30;101915.55;1720403;83;21387;-81
2020/12/08 04:14:22;;;;;;;16.23;7.97;;;;;;;-1.26;56.12;101923.36;1719059;83;21535;-82
2020/12/08 04:16:50;;;;;;;15.90;7.17;;;;;;;-1.31;56.06;101915.61;1719448;83;21213;-81
2020/12/08 04:19:19;;;;;;;10.75;5.92;;;;;;;-1.39;56.18;101914.98;1725061;83;21603;-81
2020/12/08 04:21:47;;;;;;;15.28;6.92;;;;;;;-1.37;56.21;101927.60;1695315;83;21168;-82
2020/12/08 04:24:17;;;;;;;11.28;6.03;;;;;;;-1.33;56.07;101917.41;1725382;82;22632;-81
2020/12/08 04:26:45;;;;;;;10.53;5.67;;;;;;;-1.41;55.88;101916.34;1724481;83;21159;-81
2020/12/08 04:29:15;;;;;;;16.73;7.97;;;;;;;-1.48;55.96;101918.73;1723780;83;21691;-80
2020/12/08 04:31:45;;;;;;;14.13;8.23;;;;;;;-1.49;55.94;101909.59;1723931;83;21192;-80
2020/12/08 04:34:14;;;;;;;9.05;5.47;;;;;;;-1.50;55.96;101917.05;1728042;81;21228;-79
2020/12/08 04:36:41;;;;;;;14.78;7.47;;;;;;;-1.52;56.06;101911.84;1744636;82;21923;-79
2020/12/08 04:39:09;;;;;;;12.33;6.75;;;;;;;-1.50;56.29;101914.42;1745094;82;21664;-80
2020/12/08 04:41:39;;;;;;;13.45;7.42;;;;;;;-1.50;56.22;101914.42;1745448;82;21176;-81
2020/12/08 04:44:06;;;;;;;15.60;7.95;;;;;;;-1.48;56.20;101910.00;1744960;82;21187;-80
2020/12/08 04:46:34;;;;;;;14.55;7.72;;;;;;;-1.40;56.13;101909.32;1745089;82;21232;-79
2020/12/08 04:49:02;;;;;;;11.48;5.72;;;;;;;-1.35;56.03;101910.04;1744867;82;21194;-80
2020/12/08 04:51:30;;;;;;;13.15;6.90;;;;;;;-1.32;55.83;101916.07;1745069;82;21680;-80
2020/12/08 04:53:58;;;;;;;11.97;6.50;;;;;;;-1.35;55.72;101914.84;1744862;82;21180;-78
2020/12/08 04:56:26;;;;;;;13.60;8.05;;;;;;;-1.40;55.71;101928.58;1744818;82;21216;-79
2020/12/08 04:58:54;;;;;;;16.20;9.08;;;;;;;-1.44;55.73;101907.69;1744432;82;21192;-80
2020/12/08 05:01:27;;;;;;;16.80;8.18;;;;;;;-1.38;55.83;101921.49;1744813;82;21204;-81
2020/12/08 05:04:00;;;;;;;14.40;8.50;;;;;;;-1.31;55.74;101914.30;1745368;81;21153;-80
2020/12/08 05:06:29;;;;;;;15.03;8.08;;;;;;;-1.31;55.68;101919.09;1745315;82;21160;-79
2020/12/08 05:09:07;;;;;;;16.65;7.90;;;;;;;-1.36;55.69;101912.27;1745309;82;21492;-79
2020/12/08 05:11:35;;;;;;;16.90;8.75;;;;;;;-1.36;55.71;101926.27;1736736;81;21172;-80
2020/12/08 05:14:05;;;;;;;16.45;7.53;;;;;;;-1.37;55.67;101915.77;1671763;84;21257;-78
2020/12/08 05:16:34;;;;;;;11.38;5.60;;;;;;;-1.37;55.63;101914.46;1737414;81;21231;-79
2020/12/08 05:19:09;;;;;;;11.95;5.53;;;;;;;-1.34;55.51;101907.81;1740733;81;21606;-81
2020/12/08 05:21:50;;;;;;;14.43;7.15;;;;;;;-1.29;55.42;101905.44;1732756;82;21200;-80
2020/12/08 05:24:26;;;;;;;17.15;6.62;;;;;;;-1.25;55.39;101899.64;1751200;81;21195;-81
2020/12/08 05:26:56;;;;;;;16.05;7.42;;;;;;;-1.19;55.36;101932.76;1746500;81;21793;-81
2020/12/08 05:29:24;;;;;;;18.07;7.83;;;;;;;-1.36;55.79;101905.70;1740006;81;21192;-80
2020/12/08 05:31:52;;;;;;;16.32;8.13;;;;;;;-1.44;56.21;101910.31;1739683;81;21352;-81
2020/12/08 05:34:22;;;;;;;12.55;5.70;;;;;;;-1.47;56.40;101914.34;1744834;81;21181;-80
2020/12/08 05:36:53;;;;;;;21.10;8.50;;;;;;;-1.38;56.36;101915.37;1682229;84;21304;-80
2020/12/08 05:39:22;;;;;;;15.90;7.58;;;;;;;-1.26;56.11;101926.84;1738792;81;21512;-82
2020/12/08 05:41:50;;;;;;;16.17;7.15;;;;;;;-1.13;55.44;101926.88;1742401;81;21148;-80
2020/12/08 05:44:27;;;;;;;14.45;6.65;;;;;;;-1.13;55.10;101909.79;1746208;77;21021;-79
2020/12/08 05:46:53;;;;;;;15.95;6.67;;;;;;;-1.11;54.84;101907.95;1745014;79;21140;-80
2020/12/08 05:49:21;;;;;;;11.40;5.87;;;;;;;-1.09;54.57;101919.30;1731806;81;21191;-81
2020/12/08 05:51:51;;;;;;;11.38;5.60;;;;;;;-1.09;54.51;101908.79;1745134;81;22290;-79
2020/12/08 05:54:20;;;;;;;14.33;7.05;;;;;;;-1.07;54.31;101920.10;1731913;82;21174;-80
2020/12/08 05:56:50;;;;;;;11.68;4.92;;;;;;;-1.07;54.26;101913.53;1736464;81;21165;-79
2020/12/08 05:59:28;;;;;;;16.97;7.65;;;;;;;-1.07;54.11;101906.95;1754437;81;21180;-81
2020/12/08 06:01:56;;;;;;;19.05;6.92;;;;;;;-1.10;54.12;101906.19;1739529;81;21192;-81
2020/12/08 06:04:25;;;;;;;22.58;6.90;;;;;;;-1.11;54.20;101900.53;1744048;81;21389;-81
2020/12/08 06:06:55;;;;;;;17.07;7.50;;;;;;;-1.10;54.27;101900.92;1672399;84;21235;-81
2020/12/08 06:09:25;;;;;;;16.37;7.53;;;;;;;-1.10;54.42;101918.88;1721870;82;21351;-81
2020/12/08 06:11:54;;;;;;;17.60;7.05;;;;;;;-1.12;54.46;101914.13;1696106;83;21599;-82
2020/12/08 06:14:33;;;;;;;17.12;7.00;;;;;;;-1.11;54.82;101916.30;1703679;83;21156;-81
2020/12/08 06:17:06;;;;;;;14.68;6.53;;;;;;;-1.05;54.76;101924.84;1715274;83;21384;-81
2020/12/08 06:19:35;;;;;;;14.18;6.72;;;;;;;-1.02;54.70;101915.55;1692562;83;21253;-80
2020/12/08 06:22:12;;;;;;;23.22;9.18;;;;;;;-0.97;54.72;101914.55;1704540;82;21224;-80
2020/12/08 06:24:51;;;;;;;19.87;7.25;;;;;;;-0.94;54.55;101926.30;1737897;81;21204;-81
2020/12/08 06:27:26;;;;;;;17.42;8.10;;;;;;;-0.98;54.81;101917.64;1734161;81;21492;-80
2020/12/08 06:30:02;;;;;;;18.62;8.28;;;;;;;-0.99;54.74;101919.88;1690129;83;21199;-78
2020/12/08 06:32:35;;;;;;;15.58;6.80;;;;;;;-0.98;54.75;101919.41;1745583;81;21207;-80
2020/12/08 06:35:07;;;;;;;20.37;8.30;;;;;;;-0.97;54.94;101915.87;1672583;83;21688;-78
2020/12/08 06:37:38;;;;;;;17.98;7.55;;;;;;;-0.93;54.99;101916.18;1713412;83;21200;-80
2020/12/08 06:40:13;;;;;;;14.87;6.42;;;;;;;-0.89;55.07;101918.66;1717026;82;21217;-78
2020/12/08 06:42:42;;;;;;;14.83;7.45;;;;;;;-0.85;54.83;101929.49;1723532;81;21382;-80
2020/12/08 06:45:12;;;;;;;17.27;7.60;;;;;;;-0.85;54.96;101915.48;1731530;82;21224;-79
2020/12/08 06:47:41;;;;;;;18.70;9.48;;;;;;;-0.85;54.95;101922.06;1731638;82;21751;-79
2020/12/08 06:50:25;;;;;;;27.42;12.37;;;;;;;-0.83;54.85;101924.17;1724733;82;21179;-79
2020/12/08 06:52:59;;;;;;;25.75;10.53;;;;;;;-0.82;55.05;101927.20;1723624;81;21992;-80
2020/12/08 06:55:28;;;;;;;22.02;10.10;;;;;;;-0.83;55.09;101926.80;1722994;81;21370;-79
2020/12/08 06:58:06;;;;;;;19.85;9.98;;;;;;;-0.95;55.43;101916.66;1736015;81;21197;-80
2020/12/08 07:00:34;;;;;;;19.62;9.98;;;;;;;-1.03;55.62;101919.10;1714875;81;21595;-79
2020/12/08 07:03:03;;;;;;;18.50;9.75;;;;;;;-1.04;55.92;101917.39;1731663;82;21165;-80
2020/12/08 07:05:32;;;;;;;21.27;11.03;;;;;;;-1.02;55.99;101920.81;1725569;81;21176;-78
2020/12/08 07:08:05;;;;;;;17.23;8.13;;;;;;;-1.05;56.18;101924.84;1730403;81;21142;-79
2020/12/08 07:10:39;;;;;;;18.85;9.88;;;;;;;-1.06;56.11;101928.39;1722035;81;21128;-80
2020/12/08 07:13:14;;;;;;;15.48;7.83;;;;;;;-1.12;56.55;101923.33;1729930;82;21220;-79
2020/12/08 07:15:43;;;;;;;19.02;7.92;;;;;;;-1.16;56.65;101936.16;1737652;81;21203;-79
2020/12/08 07:18:14;;;;;;;24.20;9.98;;;;;;;-1.23;56.21;101933.30;1725642;82;22014;-80
2020/12/08 07:20:43;;;;;;;18.87;8.78;;;;;;;-1.35;56.40;101930.61;1692894;82;21248;-80
2020/12/08 07:23:13;;;;;;;26.27;12.50;;;;;;;-1.34;56.74;101931.47;1700671;83;21183;-79
2020/12/08 07:25:41;;;;;;;28.38;12.40;;;;;;;-1.32;57.12;101929.64;1669334;84;21216;-80
2020/12/08 07:28:09;;;;;;;18.55;8.83;;;;;;;-1.26;57.26;101924.22;1708055;82;21435;-78
2020/12/08 07:30:38;;;;;;;20.52;8.05;;;;;;;-1.16;57.07;101926.96;1744129;81;21151;-79
2020/12/08 07:33:11;;;;;;;30.05;12.58;;;;;;;-1.22;57.19;101926.30;1736082;81;21289;-81
2020/12/08 07:35:44;;;;;;;22.37;9.38;;;;;;;-1.32;57.62;101934.89;1697003;83;21221;-79
2020/12/08 07:38:12;;;;;;;18.80;8.30;;;;;;;-1.33;57.86;101946.32;1703020;82;21124;-80
2020/12/08 07:40:41;;;;;;;20.32;8.73;;;;;;;-1.32;57.82;101933.58;1704623;81;21176;-81
2020/12/08 07:43:10;;;;;;;15.70;7.40;;;;;;;-1.31;57.76;101961.16;1732559;81;21223;-79
2020/12/08 07:45:44;;;;;;;17.73;8.18;;;;;;;-1.40;57.95;101937.77;1665949;83;21699;-78
2020/12/08 07:48:18;;;;;;;19.05;8.40;;;;;;;-1.41;58.14;101944.37;1701600;83;21154;-77
2020/12/08 07:50:46;;;;;;;23.50;9.98;;;;;;;-1.40;58.24;101942.17;1694749;83;21148;-79
2020/12/08 07:53:15;;;;;;;27.42;9.95;;;;;;;-1.35;58.40;101935.01;1704595;82;21141;-78
2020/12/08 07:55:45;;;;;;;26.50;9.85;;;;;;;-1.31;58.23;101929.61;1708893;82;21131;-78
2020/12/08 07:58:13;;;;;;;26.95;9.58;;;;;;;-1.23;58.13;101933.30;1699518;83;21157;-80
2020/12/08 08:00:41;;;;;;;22.27;9.35;;;;;;;-1.18;58.07;101926.16;1699482;82;21221;-78
2020/12/08 08:03:09;;;;;;;23.20;10.08;;;;;;;-1.07;58.14;101926.67;1693587;82;21136;-81
2020/12/08 08:05:37;;;;;;;23.10;10.32;;;;;;;-1.02;57.88;101925.22;1728200;81;21727;-80
2020/12/08 08:08:05;;;;;;;30.17;11.40;;;;;;;-0.99;58.10;101925.13;1732895;81;21145;-78
2020/12/08 08:10:33;;;;;;;21.02;8.85;;;;;;;-0.91;57.90;101926.18;1726351;81;21358;-79
2020/12/08 08:13:01;;;;;;;27.93;10.80;;;;;;;-0.85;57.69;101933.44;1727791;82;21104;-79
2020/12/08 08:15:30;;;;;;;25.95;8.80;;;;;;;-0.85;57.27;101938.70;1725752;82;21113;-80
2020/12/08 08:17:58;;;;;;;18.42;8.63;;;;;;;-0.84;57.42;101927.27;1733531;82;21125;-79
2020/12/08 08:20:25;;;;;;;20.05;8.88;;;;;;;-0.78;57.36;101931.00;1729764;81;21120;-79
2020/12/08 08:22:55;;;;;;;21.75;9.23;;;;;;;-0.79;56.46;101925.80;1730765;82;22087;-79
2020/12/08 08:25:28;;;;;;;20.05;9.03;;;;;;;-0.87;56.51;101930.44;1733501;82;21144;-79
2020/12/08 08:27:56;;;;;;;18.70;7.85;;;;;;;-0.88;56.23;101920.84;1731546;82;21108;-79
2020/12/08 08:30:24;;;;;;;17.77;8.38;;;;;;;-0.86;56.32;101923.83;1733495;81;21152;-77
2020/12/08 08:32:52;;;;;;;19.02;9.43;;;;;;;-0.83;56.28;101928.98;1728536;81;21101;-79
2020/12/08 08:35:21;;;;;;;22.65;9.90;;;;;;;-0.83;56.17;101918.91;1727591;81;22662;-77
2020/12/08 08:37:49;;;;;;;18.95;8.83;;;;;;;-0.79;56.12;101913.50;1729939;81;21121;-75
2020/12/08 08:40:16;;;;;;;19.48;8.75;;;;;;;-0.79;56.67;101920.08;1729228;82;21108;-77
2020/12/08 08:42:44;;;;;;;19.77;8.98;;;;;;;-0.74;56.67;101922.56;1734525;82;21210;-79
2020/12/08 08:45:14;;;;;;;16.73;8.28;;;;;;;-0.72;55.97;101911.55;1725245;81;21097;-78
2020/12/08 08:47:43;;;;;;;13.62;7.72;;;;;;;-0.73;55.88;101915.06;1723833;81;21386;-79
2020/12/08 08:50:11;;;;;;;18.67;8.75;;;;;;;-0.71;55.95;101916.35;1729476;82;21522;-80
2020/12/08 08:52:39;;;;;;;17.48;8.88;;;;;;;-0.64;55.76;101912.59;1727125;81;21089;-79
2020/12/08 08:55:11;;;;;;;17.98;8.30;;;;;;;-0.61;55.58;101910.72;1707248;82;21128;-80
2020/12/08 08:57:41;;;;;;;19.65;9.13;;;;;;;-0.58;55.48;101919.84;1703276;83;21156;-79
2020/12/08 09:00:11;;;;;;;17.52;8.00;;;;;;;-0.57;55.15;101914.12;1701735;82;21436;-78
2020/12/08 09:02:44;;;;;;;15.85;8.18;;;;;;;-0.58;55.34;101907.14;1734967;81;21176;-82
2020/12/08 09:05:14;;;;;;;17.75;8.48;;;;;;;-0.54;55.17;101912.71;1733151;81;21124;-79
2020/12/08 09:07:42;;;;;;;14.18;7.35;;;;;;;-0.51;55.21;101906.01;1729245;81;21100;-79
2020/12/08 09:10:10;;;;;;;14.87;7.35;;;;;;;-0.46;54.96;101901.91;1726824;82;21124;-77
2020/12/08 09:12:38;;;;;;;20.92;7.95;;;;;;;-0.47;54.66;101900.19;1730953;82;21375;-79
2020/12/08 09:15:07;;;;;;;19.12;8.83;;;;;;;-0.57;54.88;101912.80;1723978;81;21125;-80
2020/12/08 09:17:35;;;;;;;14.90;8.30;;;;;;;-0.77;55.49;101929.26;1723590;81;21255;-80
2020/12/08 09:20:03;;;;;;;16.82;9.13;;;;;;;-0.97;55.17;101910.61;1729009;81;21237;-81
2020/12/08 09:22:32;;;;;;;19.25;9.48;;;;;;;-1.14;55.06;101902.78;1724161;81;21208;-77
2020/12/08 09:25:02;;;;;;;29.02;12.33;;;;;;;-1.17;55.04;101896.78;1724928;82;21466;-81
2020/12/08 09:27:30;;;;;;;23.60;10.48;;;;;;;-1.20;54.99;101890.30;1731214;81;21057;-79
2020/12/08 09:29:58;;;;;;;16.82;8.30;;;;;;;-1.17;55.00;101895.02;1732483;81;21254;-80
2020/12/08 09:32:27;;;;;;;19.12;9.45;;;;;;;-1.17;54.64;101897.64;1726226;81;21236;-79
2020/12/08 09:34:55;;;;;;;23.47;9.53;;;;;;;-1.24;54.80;101885.58;1721947;81;21678;-80
2020/12/08 09:37:24;;;;;;;14.30;6.92;;;;;;;-1.24;55.28;101885.58;1727385;81;22245;-79
2020/12/08 09:39:52;;;;;;;15.18;7.53;;;;;;;-1.19;55.30;101882.81;1730169;81;21235;-77
2020/12/08 09:42:21;;;;;;;16.75;8.23;;;;;;;-1.13;55.33;101875.61;1719256;81;21140;-79
2020/12/08 09:44:50;;;;;;;22.62;9.88;;;;;;;-1.06;54.84;101888.95;1723552;81;21139;-78
2020/12/08 09:47:19;;;;;;;17.37;9.00;;;;;;;-1.05;55.09;101889.34;1698397;82;21113;-79
2020/12/08 09:49:46;;;;;;;22.22;10.00;;;;;;;-0.98;54.82;101879.97;1700478;82;21472;-79
2020/12/08 09:52:14;;;;;;;15.63;7.78;;;;;;;-0.95;54.65;101868.89;1700075;83;21243;-78
2020/12/08 09:54:43;;;;;;;12.82;7.53;;;;;;;-0.89;54.90;101869.14;1703030;82;21203;-78
2020/12/08 09:57:11;;;;;;;17.92;7.65;;;;;;;-0.80;54.95;101871.47;1672993;84;22465;-81
2020/12/08 09:59:39;;;;;;;17.92;8.58;;;;;;;-0.74;54.80;101862.05;1731481;81;21645;-78
2020/12/08 10:02:07;;;;;;;19.30;8.53;;;;;;;-0.69;54.53;101860.58;1741679;81;21219;-79
2020/12/08 10:04:35;;;;;;;17.20;9.13;;;;;;;-0.70;54.68;101876.83;1740902;81;21209;-79
2020/12/08 10:07:14;;;;;;;17.92;8.68;;;;;;;-0.67;54.59;101874.10;1736170;81;21207;-79
2020/12/08 10:09:39;;;;;;;24.82;11.43;;;;;;;-0.63;54.65;101858.62;1733506;81;21215;-80
2020/12/08 10:12:14;;;;;;;31.42;13.03;;;;;;;-0.60;54.63;101869.47;1688073;83;21472;-78
2020/12/08 10:14:59;;;;;;;25.10;12.47;;;;;;;-0.60;54.40;101870.33;1694240;82;21504;-78
2020/12/08 10:17:27;;;;;;;21.17;9.93;;;;;;;-0.63;54.22;101869.60;1667480;84;21270;-78
2020/12/08 10:19:59;;;;;;;18.82;9.48;;;;;;;-0.65;54.50;101868.31;1729919;81;21556;-78
2020/12/08 10:22:31;;;;;;;14.70;6.58;;;;;;;-0.62;55.03;101872.17;1698912;82;21281;-81
2020/12/08 10:25:12;;;;;;;20.45;8.90;;;;;;;-0.55;54.59;101874.13;1698005;83;21953;-81
2020/12/08 10:27:44;;;;;;;21.68;9.60;;;;;;;-0.61;54.47;101865.98;1722541;82;21189;-76
2020/12/08 10:30:17;;;;;;;24.37;11.30;;;;;;;-0.62;54.57;101872.17;1726124;82;21224;-79
2020/12/08 10:32:58;;;;;;;24.90;11.05;;;;;;;-0.61;54.63;101878.29;1720581;82;21230;-80
2020/12/08 10:35:28;;;;;;;30.15;10.58;;;;;;;-0.63;54.75;101863.87;1725605;82;21203;-79
2020/12/08 10:37:56;;;;;;;21.93;10.93;;;;;;;-0.58;54.86;101871.16;1721017;81;21197;-78
2020/12/08 10:40:24;;;;;;;24.92;11.12;;;;;;;-0.48;55.02;101861.63;1718275;81;21836;-77
2020/12/08 10:42:52;;;;;;;23.55;10.90;;;;;;;-0.39;54.74;101871.84;1720913;81;21207;-79
2020/12/08 10:45:21;;;;;;;22.73;9.73;;;;;;;-0.34;54.61;101869.44;1713586;81;21053;-79
2020/12/08 10:47:49;;;;;;;20.17;10.30;;;;;;;-0.29;54.67;101866.64;1720074;81;21192;-80
2020/12/08 10:50:17;;;;;;;25.00;12.37;;;;;;;-0.24;54.62;101856.80;1716637;81;21188;-77
2020/12/08 10:52:46;;;;;;;24.67;10.53;;;;;;;-0.19;54.60;101864.08;1714588;82;21471;-79
2020/12/08 10:55:14;;;;;;;24.37;11.45;;;;;;;-0.19;54.46;101852.23;1724863;81;21196;-79
2020/12/08 10:57:44;;;;;;;19.90;10.30;;;;;;;-0.16;54.71;101846.00;1730057;81;21188;-79
2020/12/08 11:00:12;;;;;;;19.02;9.65;;;;;;;-0.10;54.71;101847.95;1723134;81;21773;-79
2020/12/08 11:02:40;;;;;;;21.65;9.45;;;;;;;-0.07;54.25;101854.42;1740314;81;21179;-79
2020/12/08 11:05:08;;;;;;;21.25;9.85;;;;;;;-0.11;54.30;101847.55;1733153;81;21410;-82
2020/12/08 11:07:36;;;;;;;17.20;9.08;;;;;;;-0.08;54.38;101859.30;1730691;81;21064;-81
2020/12/08 11:10:04;;;;;;;17.23;9.08;;;;;;;-0.07;54.48;101845.67;1732875;81;21187;-82
2020/12/08 11:12:33;;;;;;;18.52;9.00;;;;;;;-0.05;54.75;101842.05;1724244;81;21223;-82
2020/12/08 11:15:01;;;;;;;19.48;9.50;;;;;;;-0.01;54.44;101841.02;1715592;82;21176;-81
2020/12/08 11:17:31;;;;;;;15.95;8.55;;;;;;;-0.08;54.82;101837.37;1728987;81;21467;-81
2020/12/08 11:20:05;;;;;;;17.27;8.05;;;;;;;-0.05;54.99;101839.87;1717490;81;21683;-80
2020/12/08 11:22:35;;;;;;;16.40;8.25;;;;;;;0.01;54.98;101840.98;1715785;81;21211;-82
2020/12/08 11:25:06;;;;;;;19.07;9.40;;;;;;;0.07;54.98;101835.94;1722387;81;21204;-80
2020/12/08 11:27:35;;;;;;;17.60;8.10;;;;;;;0.10;54.71;101838.02;1722640;81;21196;-79